createdAt,value
2018-12-01T00:00:16.976Z,55.20
2018-12-01T00:02:44.691Z,53.67
2018-12-01T00:05:12.439Z,40.10
2018-12-01T00:07:40.093Z,39.83
2018-12-01T00:10:07.795Z,39.90
2018-12-01T00:12:35.509Z,49.63
2018-12-01T00:15:03.532Z,59.67
2018-12-01T00:17:31.235Z,44.17
2018-12-01T00:19:58.962Z,51.30
2018-12-01T00:22:26.598Z,45.83
2018-12-01T00:24:54.236Z,51.87
2018-12-01T00:27:21.969Z,49.77
2018-12-01T00:29:49.675Z,55.23
2018-12-01T00:32:17.344Z,43.80
2018-12-01T00:34:45.122Z,42.90
2018-12-01T00:37:12.807Z,40.60
2018-12-01T00:39:40.527Z,51.37
2018-12-01T00:42:08.227Z,48.50
2018-12-01T00:44:35.929Z,45.27
2018-12-01T00:47:03.636Z,40.30
2018-12-01T00:49:31.408Z,44.23
2018-12-01T00:51:59.168Z,48.73
2018-12-01T00:54:26.864Z,44.43
2018-12-01T00:56:54.555Z,36.03
2018-12-01T00:59:22.311Z,39.60
2018-12-01T01:01:50.025Z,55.17
2018-12-01T01:04:17.719Z,41.57
2018-12-01T01:06:45.563Z,43.20
2018-12-01T01:09:13.220Z,42.23
2018-12-01T01:11:40.987Z,46.93
2018-12-01T01:14:09.311Z,45.57
2018-12-01T01:16:37.064Z,46.57
2018-12-01T01:19:05.083Z,42.37
2018-12-01T01:21:32.740Z,39.17
2018-12-01T01:24:00.461Z,37.53
2018-12-01T01:26:28.168Z,35.33
2018-12-01T01:28:55.955Z,32.60
2018-12-01T01:31:23.639Z,40.93
2018-12-01T01:33:51.318Z,31.97
2018-12-01T01:36:18.984Z,36.20
2018-12-01T01:38:46.747Z,33.93
2018-12-01T01:41:14.385Z,40.80
2018-12-01T01:43:42.120Z,30.37
2018-12-01T01:46:09.863Z,28.37
2018-12-01T01:48:37.667Z,30.33
2018-12-01T01:51:05.601Z,34.87
2018-12-01T01:53:33.314Z,31.87
2018-12-01T01:56:01.093Z,28.17
2018-12-01T01:58:32.640Z,20.37
2018-12-01T02:01:00.413Z,25.93
2018-12-01T02:03:28.131Z,23.40
2018-12-01T02:05:55.844Z,21.77
2018-12-01T02:08:23.544Z,21.23
2018-12-01T02:10:51.269Z,22.97
2018-12-01T02:13:18.947Z,17.57
2018-12-01T02:15:46.659Z,24.27
2018-12-01T02:18:14.475Z,25.70
2018-12-01T02:20:42.227Z,22.60
2018-12-01T02:23:09.908Z,26.40
2018-12-01T02:25:37.627Z,19.73
2018-12-01T02:28:05.608Z,30.87
2018-12-01T02:30:33.375Z,28.13
2018-12-01T02:33:01.173Z,32.10
2018-12-01T02:35:29.539Z,28.10
2018-12-01T02:37:57.325Z,24.43
2018-12-01T02:40:27.035Z,30.87
2018-12-01T02:42:55.016Z,30.07
2018-12-01T02:45:40.132Z,29.30
2018-12-01T02:48:07.831Z,25.40
2018-12-01T02:50:35.615Z,28.57
2018-12-01T02:53:03.395Z,22.47
2018-12-01T02:55:31.138Z,26.03
2018-12-01T02:57:58.791Z,22.73
2018-12-01T03:00:26.491Z,23.90
2018-12-01T03:02:54.207Z,20.67
2018-12-01T03:05:22.599Z,22.53
2018-12-01T03:07:51.063Z,21.23
2018-12-01T03:10:19.912Z,21.57
2018-12-01T03:12:47.803Z,26.13
2018-12-01T03:15:16.676Z,23.83
2018-12-01T03:17:44.627Z,20.77
2018-12-01T03:20:14.421Z,27.77
2018-12-01T03:22:42.211Z,25.27
2018-12-01T03:25:16.178Z,24.10
2018-12-01T03:27:43.947Z,25.30
2018-12-01T03:30:11.713Z,27.03
2018-12-01T03:32:39.420Z,28.57
2018-12-01T03:35:11.395Z,22.53
2018-12-01T03:37:41.855Z,24.47
2018-12-01T03:40:10.304Z,20.13
2018-12-01T03:42:38.079Z,23.40
2018-12-01T03:45:08.336Z,30.07
2018-12-01T03:47:36.069Z,18.30
2018-12-01T03:50:05.331Z,21.60
2018-12-01T03:52:33.003Z,15.13
2018-12-01T03:55:00.695Z,25.23
2018-12-01T03:57:28.400Z,16.43
2018-12-01T03:59:56.061Z,12.70
2018-12-01T04:02:23.803Z,19.70
2018-12-01T04:04:51.488Z,18.50
2018-12-01T04:07:19.155Z,16.83
2018-12-01T04:09:46.828Z,24.03
2018-12-01T04:12:14.596Z,15.83
2018-12-01T04:14:42.317Z,22.37
2018-12-01T04:17:10.063Z,21.93
2018-12-01T04:19:37.769Z,24.20
2018-12-01T04:22:05.766Z,22.57
2018-12-01T04:24:33.559Z,31.43
2018-12-01T04:27:04.649Z,26.70
2018-12-01T04:29:32.395Z,28.33
2018-12-01T04:32:00.079Z,25.23
2018-12-01T04:34:27.799Z,26.97
2018-12-01T04:36:55.515Z,24.03
2018-12-01T04:39:23.283Z,28.60
2018-12-01T04:41:50.935Z,37.67
2018-12-01T04:44:18.655Z,52.40
2018-12-01T04:46:46.372Z,43.83
2018-12-01T04:49:14.015Z,40.77
2018-12-01T04:51:41.811Z,32.03
2018-12-01T04:54:09.538Z,55.33
2018-12-01T04:56:37.247Z,45.73
2018-12-01T04:59:05.047Z,27.33
2018-12-01T05:01:32.691Z,28.77
2018-12-01T05:04:00.347Z,35.93
2018-12-01T05:06:28.043Z,33.33
2018-12-01T05:08:55.751Z,25.87
2018-12-01T05:11:23.442Z,32.10
2018-12-01T05:13:51.155Z,32.50
2018-12-01T05:16:18.932Z,33.63
2018-12-01T05:18:46.691Z,34.33
2018-12-01T05:21:14.354Z,33.40
2018-12-01T05:23:42.060Z,43.37
2018-12-01T05:26:09.771Z,33.37
2018-12-01T05:28:37.495Z,36.47
2018-12-01T05:31:05.163Z,39.57
2018-12-01T05:33:32.879Z,42.07
2018-12-01T05:36:00.591Z,37.30
2018-12-01T05:38:28.295Z,34.83
2018-12-01T05:40:55.979Z,38.57
2018-12-01T05:43:23.671Z,31.60
2018-12-01T05:45:51.381Z,33.30
2018-12-01T05:48:19.015Z,37.93
2018-12-01T05:50:46.659Z,28.87
2018-12-01T05:53:14.407Z,34.83
2018-12-01T05:55:42.100Z,29.53
2018-12-01T05:58:09.734Z,35.07
2018-12-01T06:00:37.471Z,25.63
2018-12-01T06:03:06.267Z,28.60
2018-12-01T06:05:33.995Z,33.73
2018-12-01T06:08:01.701Z,39.57
2018-12-01T06:10:29.323Z,38.73
2018-12-01T06:13:02.226Z,44.80
2018-12-01T06:15:30.109Z,44.53
2018-12-01T06:17:57.850Z,43.53
2018-12-01T06:20:25.595Z,34.33
2018-12-01T06:22:53.367Z,37.23
2018-12-01T06:25:22.716Z,40.87
2018-12-01T06:27:50.447Z,36.53
2018-12-01T06:30:19.191Z,35.40
2018-12-01T06:32:48.408Z,38.50
2018-12-01T06:35:16.091Z,42.00
2018-12-01T06:37:43.841Z,35.13
2018-12-01T06:40:13.423Z,37.73
2018-12-01T06:42:41.091Z,39.20
2018-12-01T06:45:11.584Z,46.77
2018-12-01T06:47:39.359Z,45.53
2018-12-01T06:50:10.323Z,43.57
2018-12-01T06:52:38.090Z,38.17
2018-12-01T06:55:07.874Z,39.50
2018-12-01T06:57:35.507Z,36.23
2018-12-01T07:00:05.707Z,42.40
2018-12-01T07:02:33.395Z,47.73
2018-12-01T07:05:01.104Z,37.53
2018-12-01T07:07:28.799Z,32.20
2018-12-01T07:09:56.492Z,37.17
2018-12-01T07:12:24.147Z,36.83
2018-12-01T07:14:51.915Z,39.03
2018-12-01T07:17:19.583Z,37.57
2018-12-01T07:19:47.271Z,41.63
2018-12-01T07:22:14.971Z,35.17
2018-12-01T07:24:42.663Z,42.97
2018-12-01T07:27:10.404Z,41.97
2018-12-01T07:29:38.126Z,37.07
2018-12-01T07:32:05.795Z,31.70
2018-12-01T07:34:33.468Z,37.07
2018-12-01T07:37:01.176Z,44.80
2018-12-01T07:39:28.883Z,34.83
2018-12-01T07:41:56.548Z,38.10
2018-12-01T07:44:24.231Z,40.70
2018-12-01T07:46:51.967Z,41.70
2018-12-01T07:49:19.731Z,39.83
2018-12-01T07:51:47.423Z,39.77
2018-12-01T07:54:15.130Z,45.57
2018-12-01T07:56:42.855Z,34.70
2018-12-01T07:59:14.404Z,46.47
2018-12-01T08:01:42.150Z,43.57
2018-12-01T08:04:09.840Z,39.47
2018-12-01T08:06:37.571Z,38.30
2018-12-01T08:09:07.163Z,38.30
2018-12-01T08:11:34.859Z,36.77
2018-12-01T08:14:02.631Z,42.43
2018-12-01T08:16:30.643Z,40.63
2018-12-01T08:18:58.391Z,46.20
2018-12-01T08:21:26.123Z,39.13
2018-12-01T08:23:53.835Z,39.17
2018-12-01T08:26:21.654Z,33.80
2018-12-01T08:28:49.375Z,37.47
2018-12-01T08:31:17.043Z,37.40
2018-12-01T08:33:44.723Z,33.23
2018-12-01T08:36:12.460Z,34.87
2018-12-01T08:38:40.215Z,33.13
2018-12-01T08:41:07.931Z,33.47
2018-12-01T08:43:35.639Z,35.90
2018-12-01T08:46:03.322Z,45.30
2018-12-01T08:48:31.039Z,38.57
2018-12-01T08:50:58.755Z,38.67
2018-12-01T08:53:26.421Z,36.23
2018-12-01T08:55:54.301Z,35.40
2018-12-01T08:58:22.041Z,31.67
2018-12-01T09:00:49.819Z,35.50
2018-12-01T09:03:22.157Z,38.60
2018-12-01T09:05:50.487Z,30.90
2018-12-01T09:08:18.159Z,30.87
2018-12-01T09:10:45.908Z,29.80
2018-12-01T09:13:13.603Z,32.07
2018-12-01T09:15:41.380Z,32.83
2018-12-01T09:18:09.099Z,29.80
2018-12-01T09:20:36.808Z,33.43
2018-12-01T09:23:05.010Z,33.03
2018-12-01T09:25:37.060Z,29.97
2018-12-01T09:28:06.611Z,28.60
2018-12-01T09:30:35.904Z,29.97
2018-12-01T09:33:04.220Z,27.50
2018-12-01T09:35:31.883Z,31.47
2018-12-01T09:37:59.583Z,31.27
2018-12-01T09:40:27.343Z,22.93
2018-12-01T09:42:55.083Z,28.23
2018-12-01T09:45:24.285Z,27.27
2018-12-01T09:47:55.171Z,24.70
2018-12-01T09:50:22.895Z,24.10
2018-12-01T09:52:52.427Z,24.47
2018-12-01T09:55:22.734Z,19.70
2018-12-01T09:57:50.527Z,17.23
2018-12-01T10:00:20.537Z,22.03
2018-12-01T10:02:48.315Z,20.53
2018-12-01T10:05:17.644Z,19.53
2018-12-01T10:07:45.479Z,24.30
2018-12-01T10:10:15.831Z,24.80
2018-12-01T10:12:45.415Z,20.90
2018-12-01T10:15:16.721Z,21.80
2018-12-01T10:17:44.433Z,24.60
2018-12-01T10:20:15.272Z,26.87
2018-12-01T10:22:42.958Z,21.43
2018-12-01T10:25:13.292Z,20.97
2018-12-01T10:27:40.995Z,26.17
2018-12-01T10:30:16.376Z,17.47
2018-12-01T10:32:44.171Z,22.97
2018-12-01T10:35:16.455Z,19.77
2018-12-01T10:37:49.446Z,17.27
2018-12-01T10:40:17.136Z,17.67
2018-12-01T10:42:44.816Z,20.67
2018-12-01T10:45:15.943Z,21.17
2018-12-01T10:47:44.514Z,15.93
2018-12-01T10:50:16.854Z,18.67
2018-12-01T10:52:46.579Z,15.10
2018-12-01T10:55:29.722Z,14.37
2018-12-01T10:58:02.422Z,20.70
2018-12-01T11:00:36.436Z,13.37
2018-12-01T11:03:05.771Z,14.87
2018-12-01T11:05:35.205Z,12.97
2018-12-01T11:08:05.023Z,14.53
2018-12-01T11:10:32.759Z,14.47
2018-12-01T11:13:00.384Z,20.40
2018-12-01T11:15:28.161Z,21.10
2018-12-01T11:17:55.898Z,15.37
2018-12-01T11:20:23.583Z,15.37
2018-12-01T11:22:51.396Z,15.57
2018-12-01T11:25:19.197Z,14.03
2018-12-01T11:27:47.004Z,17.83
2018-12-01T11:30:16.368Z,18.67
2018-12-01T11:32:44.354Z,18.53
2018-12-01T11:35:12.124Z,16.97
2018-12-01T11:37:39.891Z,16.57
2018-12-01T11:40:12.224Z,22.37
2018-12-01T11:42:39.964Z,16.10
2018-12-01T11:45:10.651Z,15.33
2018-12-01T11:47:38.371Z,17.17
2018-12-01T11:50:14.599Z,11.43
2018-12-01T11:52:42.464Z,13.10
2018-12-01T11:55:12.915Z,13.47
2018-12-01T11:57:40.651Z,13.53
2018-12-01T12:00:15.362Z,17.17
2018-12-01T12:02:43.339Z,12.93
2018-12-01T12:05:12.619Z,18.70
2018-12-01T12:08:43.580Z,10.17
2018-12-01T12:11:11.321Z,9.80
2018-12-01T12:13:39.059Z,10.93
2018-12-01T12:16:06.759Z,13.47
2018-12-01T12:18:34.504Z,12.60
2018-12-01T12:21:02.292Z,13.30
2018-12-01T12:23:29.992Z,10.63
2018-12-01T12:25:57.754Z,12.30
2018-12-01T12:28:25.503Z,12.77
2018-12-01T12:30:53.279Z,10.33
2018-12-01T12:33:21.028Z,14.00
2018-12-01T12:35:48.767Z,14.17
2018-12-01T12:38:16.455Z,15.63
2018-12-01T12:40:44.198Z,12.07
2018-12-01T12:43:11.815Z,11.60
2018-12-01T12:45:39.559Z,14.53
2018-12-01T12:48:08.314Z,13.07
2018-12-01T12:50:36.019Z,16.50
2018-12-01T12:53:03.829Z,14.37
2018-12-01T12:55:31.619Z,12.10
2018-12-01T12:57:59.353Z,12.77
2018-12-01T13:00:28.091Z,13.57
2018-12-01T13:03:01.472Z,12.60
2018-12-01T13:05:33.213Z,8.10
2018-12-01T13:08:00.906Z,17.03
2018-12-01T13:10:28.710Z,10.97
2018-12-01T13:12:56.386Z,11.70
2018-12-01T13:15:24.155Z,15.00
2018-12-01T13:17:51.856Z,11.67
2018-12-01T13:20:21.162Z,11.40
2018-12-01T13:22:52.915Z,14.37
2018-12-01T13:25:20.639Z,13.83
2018-12-01T13:27:51.104Z,13.97
2018-12-01T13:30:22.118Z,12.93
2018-12-01T13:32:49.919Z,13.43
2018-12-01T13:35:17.787Z,8.80
2018-12-01T13:37:45.731Z,12.43
2018-12-01T13:40:14.939Z,11.77
2018-12-01T13:42:43.728Z,11.40
2018-12-01T13:45:13.114Z,12.07
2018-12-01T13:47:41.053Z,12.27
2018-12-01T13:50:13.482Z,7.97
2018-12-01T13:52:42.384Z,13.93
2018-12-01T13:55:10.392Z,13.43
2018-12-01T13:57:38.099Z,12.80
2018-12-01T14:00:12.055Z,13.93
2018-12-01T14:02:39.907Z,15.00
2018-12-01T14:05:09.677Z,16.00
2018-12-01T14:07:37.391Z,13.23
2018-12-01T14:10:11.543Z,9.83
2018-12-01T14:12:39.625Z,13.77
2018-12-01T14:15:12.682Z,10.07
2018-12-01T14:17:40.595Z,10.60
2018-12-01T14:20:10.495Z,15.30
2018-12-01T14:22:38.228Z,11.83
2018-12-01T14:25:08.861Z,12.27
2018-12-01T14:27:37.030Z,15.43
2018-12-01T14:30:09.109Z,12.23
2018-12-01T14:32:37.047Z,11.87
2018-12-01T14:35:13.622Z,13.50
2018-12-01T14:37:41.835Z,11.03
2018-12-01T14:40:11.409Z,10.90
2018-12-01T14:42:39.440Z,13.23
2018-12-01T14:45:10.217Z,12.20
2018-12-01T14:47:42.632Z,10.50
2018-12-01T14:50:11.803Z,7.37
2018-12-01T14:52:40.135Z,12.47
2018-12-01T14:55:11.555Z,12.00
2018-12-01T14:57:39.227Z,10.30
2018-12-01T15:00:23.520Z,11.07
2018-12-01T15:02:52.623Z,9.50
2018-12-01T15:05:20.350Z,9.07
2018-12-01T15:07:48.931Z,9.00
2018-12-01T15:10:21.120Z,10.10
2018-12-01T15:12:48.921Z,11.97
2018-12-01T15:15:20.415Z,12.13
2018-12-01T15:17:48.224Z,13.63
2018-12-01T15:20:17.395Z,13.43
2018-12-01T15:22:46.903Z,12.30
2018-12-01T15:25:20.279Z,11.70
2018-12-01T15:27:48.028Z,13.30
2018-12-01T15:30:19.276Z,10.40
2018-12-01T15:32:50.499Z,10.80
2018-12-01T15:35:18.252Z,14.80
2018-12-01T15:37:45.950Z,12.70
2018-12-01T15:40:15.566Z,9.00
2018-12-01T15:42:43.319Z,11.73
2018-12-01T15:45:15.793Z,16.53
2018-12-01T15:47:43.552Z,9.90
2018-12-01T15:50:17.219Z,9.30
2018-12-01T15:52:47.939Z,11.37
2018-12-01T15:55:15.627Z,7.63
2018-12-01T15:57:43.314Z,7.67
2018-12-01T16:00:19.593Z,12.47
2018-12-01T16:02:47.360Z,17.53
2018-12-01T16:05:16.482Z,9.83
2018-12-01T16:07:44.471Z,14.67
2018-12-01T16:10:15.798Z,13.47
2018-12-01T16:12:49.461Z,9.53
2018-12-01T16:15:20.594Z,13.00
2018-12-01T16:17:48.355Z,14.47
2018-12-01T16:20:16.171Z,13.77
2018-12-01T16:22:43.893Z,11.40
2018-12-01T16:25:14.225Z,10.33
2018-12-01T16:27:43.359Z,11.43
2018-12-01T16:30:15.480Z,10.93
2018-12-01T16:32:43.235Z,12.00
2018-12-01T16:35:10.938Z,13.37
2018-12-01T16:37:38.664Z,11.97
2018-12-01T16:40:12.456Z,12.97
2018-12-01T16:42:40.247Z,11.87
2018-12-01T16:45:10.938Z,11.63
2018-12-01T16:47:38.715Z,10.47
2018-12-01T16:50:11.695Z,11.87
2018-12-01T16:52:40.235Z,9.43
2018-12-01T16:55:11.418Z,10.17
2018-12-01T16:57:39.142Z,14.63
2018-12-01T17:00:21.680Z,14.33
2018-12-01T17:02:59.309Z,15.80
2018-12-01T17:05:31.503Z,13.33
2018-12-01T17:07:59.213Z,13.93
2018-12-01T17:10:26.846Z,14.57
2018-12-01T17:12:56.066Z,11.83
2018-12-01T17:15:23.855Z,14.37
2018-12-01T17:17:51.535Z,12.00
2018-12-01T17:20:19.575Z,11.60
2018-12-01T17:22:54.161Z,14.27
2018-12-01T17:25:21.842Z,13.83
2018-12-01T17:27:50.948Z,10.37
2018-12-01T17:30:20.339Z,13.07
2018-12-01T17:32:48.659Z,17.97
2018-12-01T17:35:21.185Z,11.00
2018-12-01T17:37:51.524Z,11.60
2018-12-01T17:40:25.914Z,9.80
2018-12-01T17:42:55.988Z,9.77
2018-12-01T17:45:23.686Z,10.07
2018-12-01T17:47:51.447Z,10.17
2018-12-01T17:50:19.177Z,12.40
2018-12-01T17:52:50.383Z,9.53
2018-12-01T17:55:18.128Z,10.67
2018-12-01T17:57:50.645Z,11.97
2018-12-01T18:00:22.167Z,9.63
2018-12-01T18:02:51.958Z,11.17
2018-12-01T18:05:23.853Z,11.73
2018-12-01T18:07:52.063Z,10.70
2018-12-01T18:10:19.602Z,9.80
2018-12-01T18:12:47.254Z,9.70
2018-12-01T18:15:16.752Z,11.10
2018-12-01T18:17:44.546Z,12.10
2018-12-01T18:20:17.584Z,14.00
2018-12-01T18:22:55.539Z,11.17
2018-12-01T18:25:23.255Z,16.33
2018-12-01T18:27:54.428Z,9.73
2018-12-01T18:30:25.523Z,9.10
2018-12-01T18:32:54.367Z,9.33
2018-12-01T18:35:22.042Z,9.93
2018-12-01T18:37:49.779Z,9.60
2018-12-01T18:40:19.627Z,11.00
2018-12-01T18:42:47.295Z,11.40
2018-12-01T18:45:16.675Z,10.43
2018-12-01T18:47:44.453Z,7.53
2018-12-01T18:50:16.443Z,8.83
2018-12-01T18:53:16.232Z,11.17
2018-12-01T18:55:48.296Z,9.13
2018-12-01T18:58:16.056Z,12.70
2018-12-01T19:00:52.356Z,10.80
2018-12-01T19:03:22.311Z,11.83
2018-12-01T19:05:50.019Z,11.10
2018-12-01T19:08:17.747Z,9.00
2018-12-01T19:10:45.435Z,8.27
2018-12-01T19:13:13.179Z,10.10
2018-12-01T19:15:40.920Z,9.77
2018-12-01T19:18:08.811Z,8.03
2018-12-01T19:20:37.165Z,9.03
2018-12-01T19:23:10.444Z,8.00
2018-12-01T19:25:45.304Z,9.17
2018-12-01T19:28:16.611Z,6.33
2018-12-01T19:30:47.964Z,8.43
2018-12-01T19:33:22.794Z,9.73
2018-12-01T19:35:54.887Z,10.53
2018-12-01T19:38:28.056Z,10.43
2018-12-01T19:41:01.467Z,10.33
2018-12-01T19:43:32.570Z,20.47
2018-12-01T19:46:03.420Z,8.63
2018-12-01T19:48:34.244Z,12.03
2018-12-01T19:51:05.411Z,9.13
2018-12-01T19:53:37.873Z,9.27
2018-12-01T19:56:08.479Z,9.17
2018-12-01T19:58:40.158Z,8.80
2018-12-01T20:01:11.458Z,11.23
2018-12-01T20:03:43.307Z,13.17
2018-12-01T20:06:15.121Z,12.93
2018-12-01T20:08:44.420Z,10.90
2018-12-01T20:11:12.634Z,8.27
2018-12-01T20:13:46.022Z,8.50
2018-12-01T20:16:38.842Z,9.87
2018-12-01T20:19:07.674Z,9.03
2018-12-01T20:21:36.519Z,9.67
2018-12-01T20:24:07.534Z,10.73
2018-12-01T20:26:35.863Z,11.03
2018-12-01T20:29:03.891Z,9.77
2018-12-01T20:31:31.799Z,13.50
2018-12-01T20:34:01.324Z,13.93
2018-12-01T20:36:37.086Z,11.97
2018-12-01T20:39:30.535Z,9.53
2018-12-01T20:41:58.895Z,13.13
2018-12-01T20:44:27.955Z,11.20
2018-12-01T20:46:57.267Z,15.63
2018-12-01T20:49:29.122Z,12.20
2018-12-01T20:51:58.057Z,13.40
2018-12-01T20:54:37.376Z,11.43
2018-12-01T20:57:20.813Z,13.50
2018-12-01T20:59:48.663Z,15.60
2018-12-01T21:02:17.246Z,10.70
2018-12-01T21:04:44.995Z,11.47
2018-12-01T21:07:12.663Z,10.90
2018-12-01T21:09:40.796Z,13.37
2018-12-01T21:12:10.732Z,11.53
2018-12-01T21:14:39.629Z,9.40
2018-12-01T21:17:08.822Z,10.30
2018-12-01T21:19:38.165Z,7.40
2018-12-01T21:22:08.923Z,9.07
2018-12-01T21:24:37.546Z,8.67
2018-12-01T21:27:05.495Z,9.60
2018-12-01T21:29:33.474Z,6.20
2018-12-01T21:32:04.755Z,10.77
2018-12-01T21:34:32.596Z,7.47
2018-12-01T21:37:00.321Z,10.20
2018-12-01T21:39:28.783Z,8.60
2018-12-01T21:41:57.755Z,8.03
2018-12-01T21:44:25.467Z,7.27
2018-12-01T21:46:54.068Z,7.60
2018-12-01T21:49:21.803Z,9.27
2018-12-01T21:51:49.593Z,10.07
2018-12-01T21:54:17.355Z,11.67
2018-12-01T21:56:45.050Z,7.97
2018-12-01T21:59:12.799Z,6.90
2018-12-01T22:01:40.544Z,9.07
2018-12-01T22:04:09.157Z,8.20
2018-12-01T22:06:36.848Z,7.00
2018-12-01T22:09:06.953Z,10.83
2018-12-01T22:11:34.732Z,7.30
2018-12-01T22:14:02.436Z,9.30
2018-12-01T22:16:30.704Z,5.37
2018-12-01T22:18:58.519Z,9.27
2018-12-01T22:21:26.182Z,7.97
2018-12-01T22:23:54.044Z,6.63
2018-12-01T22:26:21.771Z,4.40
2018-12-01T22:28:49.614Z,5.47
2018-12-01T22:31:17.274Z,5.47
2018-12-01T22:33:44.993Z,6.17
2018-12-01T22:36:12.758Z,4.33
2018-12-01T22:38:40.471Z,4.40
2018-12-01T22:41:08.207Z,6.37
2018-12-01T22:43:35.961Z,4.40
2018-12-01T22:46:07.231Z,5.73
2018-12-01T22:48:34.979Z,6.80
2018-12-01T22:51:02.719Z,5.27
2018-12-01T22:53:30.432Z,5.93
2018-12-01T22:55:58.240Z,4.80
2018-12-01T22:58:25.954Z,3.73
2018-12-01T23:00:56.301Z,6.20
2018-12-01T23:03:25.835Z,7.77
2018-12-01T23:05:53.580Z,7.40
2018-12-01T23:08:23.141Z,6.00
2018-12-01T23:10:50.887Z,5.67
2018-12-01T23:13:18.839Z,3.60
2018-12-01T23:15:46.606Z,6.97
2018-12-01T23:18:16.617Z,5.37
2018-12-01T23:20:46.096Z,7.37
2018-12-01T23:23:16.651Z,3.70
2018-12-01T23:25:44.763Z,6.73
2018-12-01T23:28:12.548Z,6.47
2018-12-01T23:30:44.754Z,4.60
2018-12-01T23:33:16.035Z,6.57
2018-12-01T23:35:43.789Z,8.27
2018-12-01T23:38:11.532Z,4.10
2018-12-01T23:40:40.205Z,4.93
2018-12-01T23:43:08.319Z,3.93
2018-12-01T23:45:37.873Z,5.60
2018-12-01T23:48:05.886Z,7.67
2018-12-01T23:50:33.740Z,6.33
2018-12-01T23:53:06.748Z,7.97
2018-12-01T23:55:34.502Z,9.50
2018-12-01T23:58:02.339Z,4.77
